sensor_id;sensor_type;location;lat;lon;timestamp;temperature;humidity
46608;DHT22;32330;51.936;7.184;2023-04-22T03:48:53;9.30;99.90
46608;DHT22;32330;51.936;7.184;2023-04-22T03:51:27;9.40;99.90
46608;DHT22;32330;51.936;7.184;2023-04-22T03:53:57;9.40;99.90
46608;DHT22;32330;51.936;7.184;2023-04-22T03:56:26;9.40;99.90
46608;DHT22;32330;51.936;7.184;2023-04-22T03:58:57;9.50;99.90
46608;DHT22;32330;51.936;7.184;2023-04-22T04:01:24;9.50;99.90
46608;DHT22;32330;51.936;7.184;2023-04-22T04:03:57;9.50;99.90
46608;DHT22;32330;51.936;7.184;2023-04-22T04:06:31;9.50;99.90
46608;DHT22;32330;51.936;7.184;2023-04-22T04:08:58;9.50;99.90
46608;DHT22;32330;51.936;7.184;2023-04-22T04:11:26;9.50;99.90
46608;DHT22;32330;51.936;7.184;2023-04-22T04:13:55;9.50;99.90
46608;DHT22;32330;51.936;7.184;2023-04-22T04:16:26;9.60;99.90
46608;DHT22;32330;51.936;7.184;2023-04-22T04:19:02;9.60;99.90
46608;DHT22;32330;51.936;7.184;2023-04-22T04:21:31;9.70;99.90
46608;DHT22;32330;51.936;7.184;2023-04-22T04:23:59;9.70;99.90
46608;DHT22;32330;51.936;7.184;2023-04-22T04:26:29;9.70;99.90
46608;DHT22;32330;51.936;7.184;2023-04-22T04:29:05;9.70;99.90
46608;DHT22;32330;51.936;7.184;2023-04-22T04:31:35;9.70;99.90
46608;DHT22;32330;51.936;7.184;2023-04-22T04:34:05;9.70;99.90
46608;DHT22;32330;51.936;7.184;2023-04-22T04:36:34;9.70;99.90
46608;DHT22;32330;51.936;7.184;2023-04-22T04:39:12;9.80;99.90
46608;DHT22;32330;51.936;7.184;2023-04-22T04:41:43;9.70;99.90
46608;DHT22;32330;51.936;7.184;2023-04-22T04:44:10;9.80;99.90
46608;DHT22;32330;51.936;7.184;2023-04-22T04:46:38;9.80;99.90
46608;DHT22;32330;51.936;7.184;2023-04-22T04:49:07;9.80;99.90
46608;DHT22;32330;51.936;7.184;2023-04-22T04:51:45;9.80;99.90
46608;DHT22;32330;51.936;7.184;2023-04-22T04:54:12;9.80;99.90
46608;DHT22;32330;51.936;7.184;2023-04-22T04:56:40;9.80;99.90
46608;DHT22;32330;51.936;7.184;2023-04-22T04:59:08;9.90;99.90
46608;DHT22;32330;51.936;7.184;2023-04-22T05:01:37;9.90;99.90
46608;DHT22;32330;51.936;7.184;2023-04-22T05:04:09;9.90;99.90
46608;DHT22;32330;51.936;7.184;2023-04-22T05:06:39;9.90;99.90
46608;DHT22;32330;51.936;7.184;2023-04-22T05:09:06;10.00;99.90
46608;DHT22;32330;51.936;7.184;2023-04-22T05:11:34;10.00;99.90
46608;DHT22;32330;51.936;7.184;2023-04-22T05:14:08;10.00;99.90
46608;DHT22;32330;51.936;7.184;2023-04-22T05:16:39;10.10;99.90
46608;DHT22;32330;51.936;7.184;2023-04-22T05:19:08;10.10;99.90
46608;DHT22;32330;51.936;7.184;2023-04-22T05:21:36;10.10;99.90
46608;DHT22;32330;51.936;7.184;2023-04-22T05:24:03;10.20;99.90
46608;DHT22;32330;51.936;7.184;2023-04-22T05:26:31;10.20;99.90
46608;DHT22;32330;51.936;7.184;2023-04-22T05:29:00;10.20;99.90
46608;DHT22;32330;51.936;7.184;2023-04-22T05:31:27;10.20;99.90
46608;DHT22;32330;51.936;7.184;2023-04-22T05:33:54;10.30;99.90
46608;DHT22;32330;51.936;7.184;2023-04-22T05:36:23;10.30;99.90
46608;DHT22;32330;51.936;7.184;2023-04-22T05:38:52;10.30;99.90
46608;DHT22;32330;51.936;7.184;2023-04-22T05:41:19;10.40;99.90
46608;DHT22;32330;51.936;7.184;2023-04-22T05:43:46;10.40;99.90
46608;DHT22;32330;51.936;7.184;2023-04-22T05:46:16;10.50;99.90
46608;DHT22;32330;51.936;7.184;2023-04-22T05:48:44;10.50;99.90
46608;DHT22;32330;51.936;7.184;2023-04-22T05:51:33;10.60;99.90
46608;DHT22;32330;51.936;7.184;2023-04-22T05:54:00;10.70;99.90
46608;DHT22;32330;51.936;7.184;2023-04-22T05:56:27;10.70;99.90
46608;DHT22;32330;51.936;7.184;2023-04-22T05:58:54;10.80;99.90
46608;DHT22;32330;51.936;7.184;2023-04-22T06:01:23;10.80;99.90
46608;DHT22;32330;51.936;7.184;2023-04-22T06:04:04;10.80;99.90
46608;DHT22;32330;51.936;7.184;2023-04-22T06:06:32;10.90;99.90
46608;DHT22;32330;51.936;7.184;2023-04-22T06:08:59;10.90;99.90
46608;DHT22;32330;51.936;7.184;2023-04-22T06:11:26;11.00;99.90
46608;DHT22;32330;51.936;7.184;2023-04-22T06:13:53;11.00;99.90
46608;DHT22;32330;51.936;7.184;2023-04-22T06:16:21;11.10;99.90
46608;DHT22;32330;51.936;7.184;2023-04-22T06:18:48;11.10;99.90
46608;DHT22;32330;51.936;7.184;2023-04-22T06:21:16;11.20;99.90
46608;DHT22;32330;51.936;7.184;2023-04-22T06:23:44;11.20;99.90
46608;DHT22;32330;51.936;7.184;2023-04-22T06:26:11;11.30;99.90
46608;DHT22;32330;51.936;7.184;2023-04-22T06:28:39;11.40;99.90
46608;DHT22;32330;51.936;7.184;2023-04-22T06:31:10;11.40;99.90
46608;DHT22;32330;51.936;7.184;2023-04-22T06:33:37;11.50;99.90
46608;DHT22;32330;51.936;7.184;2023-04-22T06:36:05;11.60;99.90
46608;DHT22;32330;51.936;7.184;2023-04-22T06:38:34;11.70;99.90
46608;DHT22;32330;51.936;7.184;2023-04-22T06:41:23;11.70;99.90
46608;DHT22;32330;51.936;7.184;2023-04-22T06:43:52;11.90;99.90
46608;DHT22;32330;51.936;7.184;2023-04-22T06:46:42;11.90;99.90
46608;DHT22;32330;51.936;7.184;2023-04-22T06:49:35;12.00;99.90
46608;DHT22;32330;51.936;7.184;2023-04-22T06:52:33;12.10;99.90
46608;DHT22;32330;51.936;7.184;2023-04-22T06:55:01;12.20;99.90
46608;DHT22;32330;51.936;7.184;2023-04-22T06:57:31;12.30;99.90
46608;DHT22;32330;51.936;7.184;2023-04-22T06:59:58;12.30;99.90
46608;DHT22;32330;51.936;7.184;2023-04-22T07:02:26;12.40;99.90
46608;DHT22;32330;51.936;7.184;2023-04-22T07:04:53;12.50;99.90
46608;DHT22;32330;51.936;7.184;2023-04-22T07:07:20;12.60;99.90
46608;DHT22;32330;51.936;7.184;2023-04-22T07:09:48;12.70;99.90
46608;DHT22;32330;51.936;7.184;2023-04-22T07:12:21;12.80;99.90
46608;DHT22;32330;51.936;7.184;2023-04-22T07:15:22;12.90;99.90
46608;DHT22;32330;51.936;7.184;2023-04-22T07:27:19;13.30;99.90
46608;DHT22;32330;51.936;7.184;2023-04-22T07:37:19;13.60;99.90
46608;DHT22;32330;51.936;7.184;2023-04-22T07:40:07;13.60;99.90
46608;DHT22;32330;51.936;7.184;2023-04-22T07:42:37;13.80;99.90
46608;DHT22;32330;51.936;7.184;2023-04-22T07:45:11;14.10;99.90
46608;DHT22;32330;51.936;7.184;2023-04-22T07:47:38;14.30;99.90
46608;DHT22;32330;51.936;7.184;2023-04-22T07:50:11;14.40;92.80
46608;DHT22;32330;51.936;7.184;2023-04-22T07:52:39;14.50;89.80
46608;DHT22;32330;51.936;7.184;2023-04-22T07:55:08;14.70;58.40
46608;DHT22;32330;51.936;7.184;2023-04-22T07:57:35;14.90;33.30
46608;DHT22;32330;51.936;7.184;2023-04-22T08:00:05;15.00;24.70
46608;DHT22;32330;51.936;7.184;2023-04-22T08:02:37;15.00;26.50
46608;DHT22;32330;51.936;7.184;2023-04-22T08:05:05;15.00;22.30
46608;DHT22;32330;51.936;7.184;2023-04-22T08:07:32;15.30;50.40
46608;DHT22;32330;51.936;7.184;2023-04-22T08:10:08;15.40;30.00
46608;DHT22;32330;51.936;7.184;2023-04-22T08:12:36;15.60;17.70
46608;DHT22;32330;51.936;7.184;2023-04-22T08:15:04;15.70;4.60
46608;DHT22;32330;51.936;7.184;2023-04-22T08:17:37;15.90;16.10
46608;DHT22;32330;51.936;7.184;2023-04-22T08:20:09;16.00;5.10
46608;DHT22;32330;51.936;7.184;2023-04-22T08:22:36;16.20;1.00
46608;DHT22;32330;51.936;7.184;2023-04-22T08:25:05;16.40;1.00
46608;DHT22;32330;51.936;7.184;2023-04-22T08:27:36;16.50;1.00
46608;DHT22;32330;51.936;7.184;2023-04-22T08:30:06;16.60;1.00
46608;DHT22;32330;51.936;7.184;2023-04-22T08:32:33;16.90;1.00
46608;DHT22;32330;51.936;7.184;2023-04-22T08:35:00;17.00;1.00
46608;DHT22;32330;51.936;7.184;2023-04-22T08:37:28;17.20;1.00
46608;DHT22;32330;51.936;7.184;2023-04-22T08:39:55;17.40;1.00
46608;DHT22;32330;51.936;7.184;2023-04-22T08:42:24;17.50;99.90
46608;DHT22;32330;51.936;7.184;2023-04-22T08:44:53;17.70;1.00
46608;DHT22;32330;51.936;7.184;2023-04-22T08:47:20;17.70;99.90
46608;DHT22;32330;51.936;7.184;2023-04-22T08:49:49;17.90;99.90
46608;DHT22;32330;51.936;7.184;2023-04-22T08:52:16;18.00;99.90
46608;DHT22;32330;51.936;7.184;2023-04-22T08:54:43;18.20;99.90
46608;DHT22;32330;51.936;7.184;2023-04-22T08:57:11;18.40;99.90
46608;DHT22;32330;51.936;7.184;2023-04-22T08:59:41;18.40;99.90
46608;DHT22;32330;51.936;7.184;2023-04-22T09:02:12;18.50;99.90
46608;DHT22;32330;51.936;7.184;2023-04-22T09:04:42;18.50;99.90
46608;DHT22;32330;51.936;7.184;2023-04-22T09:07:09;18.70;99.90
46608;DHT22;32330;51.936;7.184;2023-04-22T09:09:38;18.80;99.90
46608;DHT22;32330;51.936;7.184;2023-04-22T09:12:05;19.00;99.90
46608;DHT22;32330;51.936;7.184;2023-04-22T09:14:32;19.10;99.90
46608;DHT22;32330;51.936;7.184;2023-04-22T09:17:02;19.20;99.90
46608;DHT22;32330;51.936;7.184;2023-04-22T09:19:29;19.40;96.00
46608;DHT22;32330;51.936;7.184;2023-04-22T09:21:57;19.30;1.00
46608;DHT22;32330;51.936;7.184;2023-04-22T09:24:24;19.40;99.90
46608;DHT22;32330;51.936;7.184;2023-04-22T09:26:51;19.60;99.90
46608;DHT22;32330;51.936;7.184;2023-04-22T09:29:20;19.60;92.30
46608;DHT22;32330;51.936;7.184;2023-04-22T09:31:48;19.60;99.90
46608;DHT22;32330;51.936;7.184;2023-04-22T09:34:22;19.70;99.90
46608;DHT22;32330;51.936;7.184;2023-04-22T09:36:53;19.80;99.90
46608;DHT22;32330;51.936;7.184;2023-04-22T09:39:22;19.80;1.00
46608;DHT22;32330;51.936;7.184;2023-04-22T09:41:56;19.80;99.90
46608;DHT22;32330;51.936;7.184;2023-04-22T09:45:09;19.90;99.90
46608;DHT22;32330;51.936;7.184;2023-04-22T09:48:43;20.40;99.90
46608;DHT22;32330;51.936;7.184;2023-04-22T10:14:10;21.00;99.90
46608;DHT22;32330;51.936;7.184;2023-04-22T10:16:40;21.30;99.90
46608;DHT22;32330;51.936;7.184;2023-04-22T10:19:11;21.50;99.90
46608;DHT22;32330;51.936;7.184;2023-04-22T10:21:40;21.50;99.90
46608;DHT22;32330;51.936;7.184;2023-04-22T10:24:14;21.30;99.90
46608;DHT22;32330;51.936;7.184;2023-04-22T10:26:42;21.50;99.90
46608;DHT22;32330;51.936;7.184;2023-04-22T10:29:14;21.60;88.60
46608;DHT22;32330;51.936;7.184;2023-04-22T10:31:42;21.80;38.20
46608;DHT22;32330;51.936;7.184;2023-04-22T10:34:11;21.70;1.00
46608;DHT22;32330;51.936;7.184;2023-04-22T10:36:56;21.80;1.00
46608;DHT22;32330;51.936;7.184;2023-04-22T10:39:24;22.10;99.90
46608;DHT22;32330;51.936;7.184;2023-04-22T10:41:56;22.30;99.90
46608;DHT22;32330;51.936;7.184;2023-04-22T10:44:46;22.60;99.90
46608;DHT22;32330;51.936;7.184;2023-04-22T10:57:26;23.30;99.90
46608;DHT22;32330;51.936;7.184;2023-04-22T11:00:19;23.10;99.90
46608;DHT22;32330;51.936;7.184;2023-04-22T11:03:11;23.30;99.90
46608;DHT22;32330;51.936;7.184;2023-04-22T11:05:42;23.10;99.90
46608;DHT22;32330;51.936;7.184;2023-04-22T11:08:18;23.10;76.50
46608;DHT22;32330;51.936;7.184;2023-04-22T11:10:50;23.10;79.90
46608;DHT22;32330;51.936;7.184;2023-04-22T11:13:34;22.90;43.30
46608;DHT22;32330;51.936;7.184;2023-04-22T11:16:07;22.80;43.80
46608;DHT22;32330;51.936;7.184;2023-04-22T11:18:39;23.10;95.50
46608;DHT22;32330;51.936;7.184;2023-04-22T11:21:08;23.40;48.40
46608;DHT22;32330;51.936;7.184;2023-04-22T11:23:36;23.70;69.70
46608;DHT22;32330;51.936;7.184;2023-04-22T11:26:05;24.10;94.50
46608;DHT22;32330;51.936;7.184;2023-04-22T11:28:44;24.20;39.70
46608;DHT22;32330;51.936;7.184;2023-04-22T11:31:14;23.90;32.90
46608;DHT22;32330;51.936;7.184;2023-04-22T11:33:45;23.80;7.20
46608;DHT22;32330;51.936;7.184;2023-04-22T11:36:19;23.80;28.80
46608;DHT22;32330;51.936;7.184;2023-04-22T11:39:00;24.10;32.10
46608;DHT22;32330;51.936;7.184;2023-04-22T11:41:27;24.10;55.00
46608;DHT22;32330;51.936;7.184;2023-04-22T11:44:02;24.30;1.30
46608;DHT22;32330;51.936;7.184;2023-04-22T11:46:33;24.00;1.00
46608;DHT22;32330;51.936;7.184;2023-04-22T11:49:16;23.80;1.00
46608;DHT22;32330;51.936;7.184;2023-04-22T11:51:53;23.80;1.00
46608;DHT22;32330;51.936;7.184;2023-04-22T11:54:31;23.70;1.00
46608;DHT22;32330;51.936;7.184;2023-04-22T11:57:02;23.70;1.00
46608;DHT22;32330;51.936;7.184;2023-04-22T11:59:35;23.70;3.20
46608;DHT22;32330;51.936;7.184;2023-04-22T12:02:19;23.50;1.00
46608;DHT22;32330;51.936;7.184;2023-04-22T12:04:52;23.60;1.00
46608;DHT22;32330;51.936;7.184;2023-04-22T12:07:30;23.30;1.00
46608;DHT22;32330;51.936;7.184;2023-04-22T12:10:12;23.40;1.00
46608;DHT22;32330;51.936;7.184;2023-04-22T12:12:43;23.30;1.00
46608;DHT22;32330;51.936;7.184;2023-04-22T12:15:11;23.10;1.00
46608;DHT22;32330;51.936;7.184;2023-04-22T12:17:55;23.10;1.00
46608;DHT22;32330;51.936;7.184;2023-04-22T12:20:22;23.10;1.00
46608;DHT22;32330;51.936;7.184;2023-04-22T12:22:58;23.20;1.00
46608;DHT22;32330;51.936;7.184;2023-04-22T12:25:26;23.40;1.00
46608;DHT22;32330;51.936;7.184;2023-04-22T12:28:05;23.60;1.00
46608;DHT22;32330;51.936;7.184;2023-04-22T12:30:34;23.60;1.00
46608;DHT22;32330;51.936;7.184;2023-04-22T12:33:10;23.40;1.00
46608;DHT22;32330;51.936;7.184;2023-04-22T12:35:51;23.20;1.00
46608;DHT22;32330;51.936;7.184;2023-04-22T12:38:23;23.00;1.00
46608;DHT22;32330;51.936;7.184;2023-04-22T12:40:51;23.00;1.00
46608;DHT22;32330;51.936;7.184;2023-04-22T12:43:18;23.00;1.00
46608;DHT22;32330;51.936;7.184;2023-04-22T12:46:29;22.90;1.00
46608;DHT22;32330;51.936;7.184;2023-04-22T12:49:17;22.80;1.00
46608;DHT22;32330;51.936;7.184;2023-04-22T12:51:45;22.90;1.00
46608;DHT22;32330;51.936;7.184;2023-04-22T12:54:13;23.00;1.00
46608;DHT22;32330;51.936;7.184;2023-04-22T12:56:43;22.90;1.00
46608;DHT22;32330;51.936;7.184;2023-04-22T12:59:11;22.90;1.00
46608;DHT22;32330;51.936;7.184;2023-04-22T13:01:39;23.20;1.00
46608;DHT22;32330;51.936;7.184;2023-04-22T13:04:06;23.10;1.00
46608;DHT22;32330;51.936;7.184;2023-04-22T13:06:35;23.00;1.00
46608;DHT22;32330;51.936;7.184;2023-04-22T13:09:03;22.70;1.00
46608;DHT22;32330;51.936;7.184;2023-04-22T13:11:31;22.80;1.00
46608;DHT22;32330;51.936;7.184;2023-04-22T13:13:58;22.80;1.00
46608;DHT22;32330;51.936;7.184;2023-04-22T13:16:26;22.70;1.00
46608;DHT22;32330;51.936;7.184;2023-04-22T13:18:53;22.40;99.90
46608;DHT22;32330;51.936;7.184;2023-04-22T13:21:20;22.40;1.00
46608;DHT22;32330;51.936;7.184;2023-04-22T13:23:48;22.10;1.00
46608;DHT22;32330;51.936;7.184;2023-04-22T13:26:15;22.10;1.00
46608;DHT22;32330;51.936;7.184;2023-04-22T13:28:43;22.20;1.00
46608;DHT22;32330;51.936;7.184;2023-04-22T13:31:10;22.10;1.00
46608;DHT22;32330;51.936;7.184;2023-04-22T13:33:37;22.40;1.00
46608;DHT22;32330;51.936;7.184;2023-04-22T13:36:04;22.60;1.00
46608;DHT22;32330;51.936;7.184;2023-04-22T13:38:31;22.50;1.00
46608;DHT22;32330;51.936;7.184;2023-04-22T13:41:00;22.80;1.00
46608;DHT22;32330;51.936;7.184;2023-04-22T13:43:27;23.20;1.00
46608;DHT22;32330;51.936;7.184;2023-04-22T13:45:54;23.30;1.00
46608;DHT22;32330;51.936;7.184;2023-04-22T13:48:21;23.10;1.00
46608;DHT22;32330;51.936;7.184;2023-04-22T13:50:48;23.20;1.00
46608;DHT22;32330;51.936;7.184;2023-04-22T13:53:15;23.40;1.00
46608;DHT22;32330;51.936;7.184;2023-04-22T13:55:42;23.70;1.00
46608;DHT22;32330;51.936;7.184;2023-04-22T13:58:11;23.80;1.00
46608;DHT22;32330;51.936;7.184;2023-04-22T14:00:38;23.70;1.00
46608;DHT22;32330;51.936;7.184;2023-04-22T14:03:05;23.40;1.00
46608;DHT22;32330;51.936;7.184;2023-04-22T14:05:32;23.40;1.00
46608;DHT22;32330;51.936;7.184;2023-04-22T14:07:59;23.10;1.00
46608;DHT22;32330;51.936;7.184;2023-04-22T14:10:26;23.00;1.00
46608;DHT22;32330;51.936;7.184;2023-04-22T14:12:53;22.90;1.00
46608;DHT22;32330;51.936;7.184;2023-04-22T14:15:21;22.80;1.00
46608;DHT22;32330;51.936;7.184;2023-04-22T14:17:49;22.80;1.00
46608;DHT22;32330;51.936;7.184;2023-04-22T14:20:16;22.70;1.00
46608;DHT22;32330;51.936;7.184;2023-04-22T14:22:44;22.50;1.00
46608;DHT22;32330;51.936;7.184;2023-04-22T14:25:11;22.50;1.00
46608;DHT22;32330;51.936;7.184;2023-04-22T14:27:38;22.60;1.00
46608;DHT22;32330;51.936;7.184;2023-04-22T14:30:06;22.50;12.50
46608;DHT22;32330;51.936;7.184;2023-04-22T14:32:35;22.50;1.00
46608;DHT22;32330;51.936;7.184;2023-04-22T14:35:02;22.10;1.00
46608;DHT22;32330;51.936;7.184;2023-04-22T14:37:30;21.90;32.40
46608;DHT22;32330;51.936;7.184;2023-04-22T14:39:57;21.90;40.40
46608;DHT22;32330;51.936;7.184;2023-04-22T14:42:24;21.40;99.90
46608;DHT22;32330;51.936;7.184;2023-04-22T14:44:51;21.40;99.90
46608;DHT22;32330;51.936;7.184;2023-04-22T14:47:18;21.40;99.90
46608;DHT22;32330;51.936;7.184;2023-04-22T14:49:46;20.90;1.00
46608;DHT22;32330;51.936;7.184;2023-04-22T14:52:14;20.50;99.90
46608;DHT22;32330;51.936;7.184;2023-04-22T14:54:41;20.50;99.90
46608;DHT22;32330;51.936;7.184;2023-04-22T14:57:08;20.50;99.90
46608;DHT22;32330;51.936;7.184;2023-04-22T14:59:35;20.40;99.90
46608;DHT22;32330;51.936;7.184;2023-04-22T15:02:02;20.10;99.90
46608;DHT22;32330;51.936;7.184;2023-04-22T15:04:30;20.10;1.00
46608;DHT22;32330;51.936;7.184;2023-04-22T15:06:58;20.10;1.00
46608;DHT22;32330;51.936;7.184;2023-04-22T15:09:27;20.00;99.90
46608;DHT22;32330;51.936;7.184;2023-04-22T15:11:54;19.90;99.90
46608;DHT22;32330;51.936;7.184;2023-04-22T15:14:24;19.80;94.90
46608;DHT22;32330;51.936;7.184;2023-04-22T15:16:51;19.90;94.20
46608;DHT22;32330;51.936;7.184;2023-04-22T15:19:18;19.70;42.40
46608;DHT22;32330;51.936;7.184;2023-04-22T15:21:45;19.60;99.90
46608;DHT22;32330;51.936;7.184;2023-04-22T15:24:14;19.60;99.90
46608;DHT22;32330;51.936;7.184;2023-04-22T15:26:41;19.50;99.90
46608;DHT22;32330;51.936;7.184;2023-04-22T15:29:08;19.40;99.90
46608;DHT22;32330;51.936;7.184;2023-04-22T15:31:35;19.40;99.90
46608;DHT22;32330;51.936;7.184;2023-04-22T15:34:02;19.30;99.90
46608;DHT22;32330;51.936;7.184;2023-04-22T15:36:29;19.40;1.00
46608;DHT22;32330;51.936;7.184;2023-04-22T15:38:58;19.30;1.00
46608;DHT22;32330;51.936;7.184;2023-04-22T15:41:27;19.20;49.00
46608;DHT22;32330;51.936;7.184;2023-04-22T15:43:54;18.90;99.90
46608;DHT22;32330;51.936;7.184;2023-04-22T15:46:21;18.50;1.00
46608;DHT22;32330;51.936;7.184;2023-04-22T15:48:48;18.00;10.30
46608;DHT22;32330;51.936;7.184;2023-04-22T15:51:18;17.70;17.90
46608;DHT22;32330;51.936;7.184;2023-04-22T15:53:46;17.70;35.90
46608;DHT22;32330;51.936;7.184;2023-04-22T15:56:13;17.80;43.60
46608;DHT22;32330;51.936;7.184;2023-04-22T15:58:42;18.00;54.00
46608;DHT22;32330;51.936;7.184;2023-04-22T16:01:11;18.00;53.40
46608;DHT22;32330;51.936;7.184;2023-04-22T16:03:39;18.00;54.00
46608;DHT22;32330;51.936;7.184;2023-04-22T16:06:06;17.90;66.00
46608;DHT22;32330;51.936;7.184;2023-04-22T16:08:44;17.90;58.50
46608;DHT22;32330;51.936;7.184;2023-04-22T16:11:18;17.80;66.80
46608;DHT22;32330;51.936;7.184;2023-04-22T16:13:47;17.90;68.00
46608;DHT22;32330;51.936;7.184;2023-04-22T16:16:14;17.80;68.70
46608;DHT22;32330;51.936;7.184;2023-04-22T16:18:42;17.80;71.10
46608;DHT22;32330;51.936;7.184;2023-04-22T16:21:09;17.90;71.80
46608;DHT22;32330;51.936;7.184;2023-04-22T16:23:36;17.80;74.20
46608;DHT22;32330;51.936;7.184;2023-04-22T16:26:04;17.80;75.80
46608;DHT22;32330;51.936;7.184;2023-04-22T16:28:31;17.80;78.10
46608;DHT22;32330;51.936;7.184;2023-04-22T16:31:06;17.80;73.10
46608;DHT22;32330;51.936;7.184;2023-04-22T16:33:49;17.80;76.00
46608;DHT22;32330;51.936;7.184;2023-04-22T16:36:28;17.80;81.60
46608;DHT22;32330;51.936;7.184;2023-04-22T16:38:57;17.80;76.60
46608;DHT22;32330;51.936;7.184;2023-04-22T16:41:24;17.70;75.50
46608;DHT22;32330;51.936;7.184;2023-04-22T16:43:51;17.60;81.10
46608;DHT22;32330;51.936;7.184;2023-04-22T16:46:20;17.60;85.20
46608;DHT22;32330;51.936;7.184;2023-04-22T16:48:47;17.50;84.50
46608;DHT22;32330;51.936;7.184;2023-04-22T16:51:14;17.40;86.80
46608;DHT22;32330;51.936;7.184;2023-04-22T16:53:41;17.40;83.40
46608;DHT22;32330;51.936;7.184;2023-04-22T16:56:08;17.30;90.30
46608;DHT22;32330;51.936;7.184;2023-04-22T16:58:35;17.40;83.90
46608;DHT22;32330;51.936;7.184;2023-04-22T17:01:02;17.40;85.10
46608;DHT22;32330;51.936;7.184;2023-04-22T17:03:31;17.40;84.70
46608;DHT22;32330;51.936;7.184;2023-04-22T17:06:05;17.40;85.60
46608;DHT22;32330;51.936;7.184;2023-04-22T17:08:53;17.30;86.40
46608;DHT22;32330;51.936;7.184;2023-04-22T17:11:20;17.30;90.60
46608;DHT22;32330;51.936;7.184;2023-04-22T17:13:47;17.30;88.60
46608;DHT22;32330;51.936;7.184;2023-04-22T17:16:14;17.20;89.80
46608;DHT22;32330;51.936;7.184;2023-04-22T17:18:55;17.20;93.00
46608;DHT22;32330;51.936;7.184;2023-04-22T17:21:34;17.00;91.10
46608;DHT22;32330;51.936;7.184;2023-04-22T17:24:06;17.00;90.20
46608;DHT22;32330;51.936;7.184;2023-04-22T17:26:36;17.00;90.10
46608;DHT22;32330;51.936;7.184;2023-04-22T17:29:07;17.00;90.40
46608;DHT22;32330;51.936;7.184;2023-04-22T17:31:36;16.90;90.50
46608;DHT22;32330;51.936;7.184;2023-04-22T17:34:22;16.80;95.40
46608;DHT22;32330;51.936;7.184;2023-04-22T17:36:49;16.70;97.40
46608;DHT22;32330;51.936;7.184;2023-04-22T17:39:16;16.70;99.90
46608;DHT22;32330;51.936;7.184;2023-04-22T17:41:44;16.50;99.90
46608;DHT22;32330;51.936;7.184;2023-04-22T17:44:11;16.40;99.90
46608;DHT22;32330;51.936;7.184;2023-04-22T17:46:38;16.30;99.90
46608;DHT22;32330;51.936;7.184;2023-04-22T17:49:06;16.30;99.90
46608;DHT22;32330;51.936;7.184;2023-04-22T17:51:34;16.20;99.90
46608;DHT22;32330;51.936;7.184;2023-04-22T17:54:07;16.20;99.90
46608;DHT22;32330;51.936;7.184;2023-04-22T17:56:34;16.10;99.90
46608;DHT22;32330;51.936;7.184;2023-04-22T17:59:01;16.10;99.90
46608;DHT22;32330;51.936;7.184;2023-04-22T18:01:28;16.00;99.90
46608;DHT22;32330;51.936;7.184;2023-04-22T18:03:56;15.90;99.90
46608;DHT22;32330;51.936;7.184;2023-04-22T18:06:23;15.80;99.90
46608;DHT22;32330;51.936;7.184;2023-04-22T18:08:52;15.80;99.90
46608;DHT22;32330;51.936;7.184;2023-04-22T18:11:19;15.80;99.90
46608;DHT22;32330;51.936;7.184;2023-04-22T18:13:46;15.80;99.90
46608;DHT22;32330;51.936;7.184;2023-04-22T18:16:13;15.80;99.90
46608;DHT22;32330;51.936;7.184;2023-04-22T18:18:40;15.70;99.90
46608;DHT22;32330;51.936;7.184;2023-04-22T18:21:07;15.60;99.90
46608;DHT22;32330;51.936;7.184;2023-04-22T18:23:35;15.50;99.90
46608;DHT22;32330;51.936;7.184;2023-04-22T18:26:03;15.60;99.90
46608;DHT22;32330;51.936;7.184;2023-04-22T18:28:34;15.50;99.90
46608;DHT22;32330;51.936;7.184;2023-04-22T18:31:01;15.40;99.90
46608;DHT22;32330;51.936;7.184;2023-04-22T18:33:29;15.50;99.90
46608;DHT22;32330;51.936;7.184;2023-04-22T18:35:56;15.40;99.90
46608;DHT22;32330;51.936;7.184;2023-04-22T18:38:24;15.30;99.90
46608;DHT22;32330;51.936;7.184;2023-04-22T18:40:51;15.40;99.90
46608;DHT22;32330;51.936;7.184;2023-04-22T18:43:20;15.30;99.90
46608;DHT22;32330;51.936;7.184;2023-04-22T18:45:47;15.30;99.90
46608;DHT22;32330;51.936;7.184;2023-04-22T18:48:14;15.30;99.90
46608;DHT22;32330;51.936;7.184;2023-04-22T18:50:43;15.20;99.90
46608;DHT22;32330;51.936;7.184;2023-04-22T18:53:10;15.30;99.90
46608;DHT22;32330;51.936;7.184;2023-04-22T18:55:37;15.10;99.90
46608;DHT22;32330;51.936;7.184;2023-04-22T18:58:04;15.10;99.90
46608;DHT22;32330;51.936;7.184;2023-04-22T19:00:32;15.10;99.90
46608;DHT22;32330;51.936;7.184;2023-04-22T19:03:00;15.00;99.90
46608;DHT22;32330;51.936;7.184;2023-04-22T19:05:27;15.00;99.90
46608;DHT22;32330;51.936;7.184;2023-04-22T19:07:54;14.90;99.90
46608;DHT22;32330;51.936;7.184;2023-04-22T19:10:21;14.90;99.90
46608;DHT22;32330;51.936;7.184;2023-04-22T19:12:48;14.90;99.90
46608;DHT22;32330;51.936;7.184;2023-04-22T19:15:15;14.90;99.90
46608;DHT22;32330;51.936;7.184;2023-04-22T19:17:45;14.90;99.90
46608;DHT22;32330;51.936;7.184;2023-04-22T19:20:12;14.90;99.90
46608;DHT22;32330;51.936;7.184;2023-04-22T19:22:39;14.80;99.90
46608;DHT22;32330;51.936;7.184;2023-04-22T19:25:07;14.80;99.90
46608;DHT22;32330;51.936;7.184;2023-04-22T19:27:34;14.80;99.90
46608;DHT22;32330;51.936;7.184;2023-04-22T19:30:02;14.80;99.90
46608;DHT22;32330;51.936;7.184;2023-04-22T19:32:30;14.80;99.90
46608;DHT22;32330;51.936;7.184;2023-04-22T19:34:59;14.80;99.90
46608;DHT22;32330;51.936;7.184;2023-04-22T19:37:26;14.80;99.90
46608;DHT22;32330;51.936;7.184;2023-04-22T19:39:53;14.80;99.90
46608;DHT22;32330;51.936;7.184;2023-04-22T19:42:20;14.80;99.90
46608;DHT22;32330;51.936;7.184;2023-04-22T19:44:47;14.80;99.90
46608;DHT22;32330;51.936;7.184;2023-04-22T19:47:14;14.70;99.90
46608;DHT22;32330;51.936;7.184;2023-04-22T19:49:42;14.70;99.90
46608;DHT22;32330;51.936;7.184;2023-04-22T19:52:10;14.60;99.90
46608;DHT22;32330;51.936;7.184;2023-04-22T19:54:40;14.60;99.90
46608;DHT22;32330;51.936;7.184;2023-04-22T19:57:09;14.50;99.90
46608;DHT22;32330;51.936;7.184;2023-04-22T19:59:38;14.40;99.90
46608;DHT22;32330;51.936;7.184;2023-04-22T20:02:06;14.40;99.90
46608;DHT22;32330;51.936;7.184;2023-04-22T20:04:34;14.30;99.90
46608;DHT22;32330;51.936;7.184;2023-04-22T20:07:02;14.30;99.90
46608;DHT22;32330;51.936;7.184;2023-04-22T20:09:32;14.30;99.90
46608;DHT22;32330;51.936;7.184;2023-04-22T20:12:00;14.10;99.90
46608;DHT22;32330;51.936;7.184;2023-04-22T20:14:27;14.10;99.90
46608;DHT22;32330;51.936;7.184;2023-04-22T20:16:55;14.10;99.90
46608;DHT22;32330;51.936;7.184;2023-04-22T20:19:22;14.10;99.90
46608;DHT22;32330;51.936;7.184;2023-04-22T20:21:49;14.00;99.90
